createdAt,value
2022-10-23T00:00:42.844Z,9.25
2022-10-23T00:05:46.119Z,8.82
2022-10-23T00:08:16.385Z,8.73
2022-10-23T00:10:46.970Z,8.45
2022-10-23T00:13:22.730Z,9.13
2022-10-23T00:15:58.719Z,8.57
2022-10-23T00:18:35.078Z,8.48
2022-10-23T00:21:09.838Z,9.02
2022-10-23T00:23:37.596Z,8.75
2022-10-23T00:26:11.531Z,8.68
2022-10-23T00:28:40.144Z,8.25
2022-10-23T00:31:12.738Z,8.57
2022-10-23T00:36:31.307Z,8.82
2022-10-23T00:38:59.784Z,8.75
2022-10-23T00:41:35.288Z,9.48
2022-10-23T00:44:31.617Z,8.13
2022-10-23T00:47:18.757Z,7.78
2022-10-23T00:49:49.498Z,8.02
2022-10-23T00:52:24.408Z,9.10
2022-10-23T00:54:56.598Z,9.45
2022-10-23T00:57:26.515Z,9.23
2022-10-23T00:59:56.965Z,8.85
2022-10-23T01:02:34.290Z,9.90
2022-10-23T01:05:01.864Z,8.73
2022-10-23T01:08:11.740Z,9.18
2022-10-23T01:11:17.842Z,8.73
2022-10-23T01:13:49.554Z,8.75
2022-10-23T01:16:41.582Z,8.60
2022-10-23T01:20:04.108Z,8.00
2022-10-23T01:23:08.583Z,8.98
2022-10-23T01:25:38.809Z,8.85
2022-10-23T01:28:16.621Z,8.85
2022-10-23T01:30:51.282Z,8.90
2022-10-23T01:33:33.635Z,8.65
2022-10-23T01:36:13.640Z,8.25
2022-10-23T01:39:19.914Z,8.90
2022-10-23T01:42:01.906Z,8.55
2022-10-23T01:45:11.604Z,8.55
2022-10-23T01:47:49.394Z,8.88
2022-10-23T01:50:26.633Z,9.13
2022-10-23T01:52:58.793Z,9.05
2022-10-23T01:55:32.540Z,8.65
2022-10-23T01:58:16.420Z,7.85
2022-10-23T02:00:52.103Z,8.15
2022-10-23T02:03:29.490Z,7.80
2022-10-23T02:05:57.046Z,8.73
2022-10-23T02:08:30.822Z,8.00
2022-10-23T02:11:15.691Z,7.97
2022-10-23T02:16:55.984Z,8.20
2022-10-23T02:19:52.498Z,9.02
2022-10-23T02:22:45.535Z,9.60
2022-10-23T02:25:25.962Z,8.52
2022-10-23T02:28:05.908Z,7.88
2022-10-23T02:30:41.844Z,8.27
2022-10-23T02:33:15.271Z,8.40
2022-10-23T02:35:51.347Z,8.48
2022-10-23T02:38:44.213Z,8.73
2022-10-23T02:41:37.027Z,8.00
2022-10-23T02:44:27.603Z,8.10
2022-10-23T02:47:18.800Z,8.68
2022-10-23T02:50:09.591Z,7.85
2022-10-23T02:53:02.990Z,8.45
2022-10-23T02:56:26.521Z,7.95
2022-10-23T02:59:40.662Z,8.07
2022-10-23T03:02:57.246Z,8.45
2022-10-23T03:05:43.539Z,7.78
2022-10-23T03:08:17.205Z,7.90
2022-10-23T03:10:44.969Z,8.40
2022-10-23T03:13:15.475Z,7.65
2022-10-23T03:15:57.525Z,7.15
2022-10-23T03:18:25.823Z,7.90
2022-10-23T03:21:03.893Z,7.68
2022-10-23T03:23:45.070Z,7.57
2022-10-23T03:26:16.328Z,7.68
2022-10-23T03:29:09.984Z,8.05
2022-10-23T03:31:41.662Z,7.97
2022-10-23T03:34:16.216Z,8.95
2022-10-23T03:36:43.967Z,7.25
2022-10-23T03:39:16.342Z,8.25
2022-10-23T03:41:44.980Z,8.15
2022-10-23T03:44:13.937Z,8.48
2022-10-23T03:46:41.477Z,8.68
2022-10-23T03:49:13.033Z,8.43
2022-10-23T03:51:52.313Z,7.55
2022-10-23T03:54:32.621Z,7.70
2022-10-23T03:57:03.203Z,7.55
2022-10-23T03:59:33.924Z,7.75
2022-10-23T04:02:03.854Z,8.07
2022-10-23T04:04:36.187Z,8.18
2022-10-23T04:07:20.982Z,7.85
2022-10-23T04:09:56.696Z,8.55
2022-10-23T04:12:30.000Z,8.35
2022-10-23T04:15:05.798Z,8.55
2022-10-23T04:17:38.481Z,8.02
2022-10-23T04:20:07.452Z,8.50
2022-10-23T04:22:35.961Z,8.13
2022-10-23T04:25:05.794Z,8.63
2022-10-23T04:27:39.420Z,8.50
2022-10-23T04:30:12.212Z,7.75
2022-10-23T04:32:49.817Z,8.48
2022-10-23T04:35:20.863Z,8.27
2022-10-23T04:37:53.700Z,8.75
2022-10-23T04:40:31.531Z,8.93
2022-10-23T04:43:04.203Z,8.93
2022-10-23T04:45:31.875Z,7.53
2022-10-23T04:48:08.668Z,8.77
2022-10-23T04:50:41.586Z,8.73
2022-10-23T04:53:14.738Z,8.88
2022-10-23T04:55:52.843Z,8.65
2022-10-23T04:58:47.277Z,8.90
2022-10-23T05:01:18.090Z,7.40
2022-10-23T05:03:56.878Z,8.38
2022-10-23T05:06:27.006Z,8.60
2022-10-23T05:08:55.380Z,7.57
2022-10-23T05:11:30.125Z,8.18
2022-10-23T05:14:06.992Z,7.85
2022-10-23T05:16:50.165Z,7.60
2022-10-23T05:19:28.155Z,6.93
2022-10-23T05:21:57.845Z,7.35
2022-10-23T05:24:29.775Z,7.72
2022-10-23T05:27:07.899Z,7.25
2022-10-23T05:29:46.448Z,7.55
2022-10-23T05:32:16.946Z,7.88
2022-10-23T05:34:45.094Z,9.20
2022-10-23T05:37:19.640Z,7.38
2022-10-23T05:39:58.644Z,7.40
2022-10-23T05:42:32.441Z,7.38
2022-10-23T05:45:14.461Z,7.15
2022-10-23T05:47:54.971Z,7.70
2022-10-23T05:50:29.094Z,7.68
2022-10-23T05:52:58.078Z,7.57
2022-10-23T05:55:27.065Z,7.45
2022-10-23T05:58:04.478Z,7.15
2022-10-23T06:00:41.461Z,8.18
2022-10-23T06:03:26.464Z,7.63
2022-10-23T06:06:00.578Z,7.60
2022-10-23T06:11:27.292Z,6.95
2022-10-23T06:16:35.692Z,6.85
2022-10-23T06:19:17.388Z,6.50
2022-10-23T06:21:52.858Z,6.80
2022-10-23T06:24:21.113Z,7.05
2022-10-23T06:26:50.493Z,6.32
2022-10-23T06:29:17.615Z,6.97
2022-10-23T06:31:44.751Z,6.22
2022-10-23T06:34:12.991Z,6.60
2022-10-23T06:36:46.410Z,6.40
2022-10-23T06:39:13.607Z,6.72
2022-10-23T06:41:42.147Z,6.45
2022-10-23T06:44:10.426Z,6.22
2022-10-23T06:46:38.128Z,6.78
2022-10-23T06:49:06.309Z,6.70
2022-10-23T06:51:35.221Z,5.57
2022-10-23T06:54:02.791Z,6.32
2022-10-23T06:56:30.472Z,6.65
2022-10-23T06:58:57.974Z,6.15
2022-10-23T07:01:27.130Z,5.65
2022-10-23T07:03:54.454Z,6.05
2022-10-23T07:06:23.959Z,5.75
2022-10-23T07:08:53.495Z,6.00
2022-10-23T07:11:23.439Z,5.47
2022-10-23T07:13:50.558Z,5.38
2022-10-23T07:16:22.076Z,5.88
2022-10-23T07:19:03.721Z,4.70
2022-10-23T07:21:35.663Z,5.57
2022-10-23T07:24:03.773Z,4.53
2022-10-23T07:26:32.979Z,4.70
2022-10-23T07:29:00.281Z,5.47
2022-10-23T07:31:28.493Z,5.30
2022-10-23T07:33:58.984Z,5.30
2022-10-23T07:36:26.250Z,4.93
2022-10-23T07:38:56.344Z,5.15
2022-10-23T07:41:26.622Z,4.88
2022-10-23T07:43:54.266Z,4.45
2022-10-23T07:46:27.091Z,5.03
2022-10-23T07:48:54.240Z,4.72
2022-10-23T07:51:21.333Z,6.20
2022-10-23T07:53:48.551Z,5.88
2022-10-23T07:56:24.771Z,6.03
2022-10-23T07:58:56.665Z,4.82
2022-10-23T08:01:50.548Z,6.22
2022-10-23T08:04:35.772Z,5.40
2022-10-23T08:07:09.125Z,6.28
2022-10-23T08:09:38.187Z,6.35
2022-10-23T08:12:07.373Z,6.47
2022-10-23T08:14:34.531Z,7.35
2022-10-23T08:19:36.279Z,7.88
2022-10-23T08:22:04.272Z,7.78
2022-10-23T08:24:31.669Z,8.05
2022-10-23T08:26:59.586Z,7.82
2022-10-23T08:29:59.821Z,7.25
2022-10-23T08:32:33.409Z,7.18
2022-10-23T08:35:01.190Z,7.63
2022-10-23T08:37:28.388Z,8.27
2022-10-23T08:39:56.191Z,6.82
2022-10-23T08:42:27.053Z,6.10
2022-10-23T08:45:22.846Z,6.80
2022-10-23T08:47:56.123Z,6.15
2022-10-23T08:50:52.496Z,6.70
2022-10-23T08:53:27.164Z,6.72
2022-10-23T08:56:34.882Z,5.90
2022-10-23T08:59:22.761Z,5.80
2022-10-23T09:02:07.810Z,6.03
2022-10-23T09:04:43.584Z,7.65
2022-10-23T09:07:36.801Z,6.65
2022-10-23T09:10:59.285Z,6.20
2022-10-23T09:14:03.888Z,5.75
2022-10-23T09:16:49.486Z,6.22
2022-10-23T09:19:27.199Z,6.35
2022-10-23T09:21:58.056Z,5.97
2022-10-23T09:24:31.721Z,5.85
2022-10-23T09:27:00.829Z,6.28
2022-10-23T09:29:41.245Z,8.75
2022-10-23T09:32:08.371Z,6.07
2022-10-23T09:34:36.080Z,8.65
2022-10-23T09:37:25.088Z,6.13
2022-10-23T09:40:20.278Z,5.60
2022-10-23T09:42:58.814Z,6.68
2022-10-23T09:45:35.865Z,6.05
2022-10-23T09:48:18.804Z,6.50
2022-10-23T09:51:04.725Z,6.05
2022-10-23T09:56:24.901Z,5.88
2022-10-23T09:59:02.380Z,6.68
2022-10-23T10:01:46.306Z,6.55
2022-10-23T10:04:14.247Z,5.93
2022-10-23T10:06:42.823Z,6.47
2022-10-23T10:09:17.261Z,6.15
2022-10-23T10:12:02.120Z,4.85
2022-10-23T10:14:50.882Z,6.53
2022-10-23T10:18:00.620Z,5.05
2022-10-23T10:20:46.443Z,6.18
2022-10-23T10:23:55.973Z,5.60
2022-10-23T10:26:52.561Z,6.22
2022-10-23T10:29:34.011Z,6.38
2022-10-23T10:32:21.329Z,5.85
2022-10-23T10:35:25.619Z,6.13
2022-10-23T10:38:22.309Z,5.38
2022-10-23T10:41:18.447Z,5.72
2022-10-23T10:44:38.255Z,4.50
2022-10-23T10:47:31.586Z,5.18
2022-10-23T10:50:08.089Z,4.88
2022-10-23T10:53:09.255Z,4.65
2022-10-23T10:55:42.656Z,4.85
2022-10-23T10:58:42.509Z,4.22
2022-10-23T11:01:35.281Z,5.20
2022-10-23T11:04:25.710Z,5.45
2022-10-23T11:06:58.428Z,4.72
2022-10-23T11:09:31.476Z,5.20
2022-10-23T11:11:58.614Z,4.90
2022-10-23T11:20:48.862Z,4.68
2022-10-23T11:24:00.402Z,4.68
2022-10-23T11:27:20.144Z,4.50
2022-10-23T11:29:52.745Z,5.20
2022-10-23T11:32:50.744Z,4.70
2022-10-23T11:36:00.734Z,4.43
2022-10-23T11:38:33.359Z,5.07
2022-10-23T11:41:19.943Z,5.18
2022-10-23T11:43:57.548Z,4.47
2022-10-23T11:46:39.704Z,5.05
2022-10-23T11:49:22.299Z,4.70
2022-10-23T11:52:06.620Z,4.13
2022-10-23T11:54:33.764Z,5.00
2022-10-23T11:57:17.334Z,4.90
2022-10-23T11:59:58.455Z,4.88
2022-10-23T12:02:44.035Z,4.43
2022-10-23T12:08:10.139Z,4.30
2022-10-23T12:10:47.270Z,3.75
2022-10-23T12:13:46.450Z,3.85
2022-10-23T12:16:16.915Z,4.20
2022-10-23T12:18:54.784Z,3.90
2022-10-23T12:21:28.388Z,4.20
2022-10-23T12:24:49.431Z,4.45
2022-10-23T12:27:31.412Z,4.78
2022-10-23T12:30:23.005Z,5.25
2022-10-23T12:33:05.789Z,4.50
2022-10-23T12:36:11.480Z,4.38
2022-10-23T12:38:54.837Z,4.50
2022-10-23T12:41:31.776Z,4.25
2022-10-23T12:44:08.366Z,4.05
2022-10-23T12:46:53.575Z,3.92
2022-10-23T12:49:25.346Z,3.80
2022-10-23T12:52:21.269Z,3.95
2022-10-23T12:54:51.039Z,4.00
2022-10-23T12:57:29.019Z,3.75
2022-10-23T13:00:24.308Z,3.92
2022-10-23T13:03:03.126Z,4.15
2022-10-23T13:05:33.564Z,3.40
2022-10-23T13:08:02.873Z,3.90
2022-10-23T13:10:32.357Z,3.38
2022-10-23T13:13:08.015Z,3.78
2022-10-23T13:15:48.798Z,3.70
2022-10-23T13:18:19.834Z,3.60
2022-10-23T13:20:53.341Z,3.85
2022-10-23T13:23:56.302Z,3.70
2022-10-23T13:26:32.426Z,4.20
2022-10-23T13:29:09.527Z,3.95
2022-10-23T13:32:02.690Z,4.25
2022-10-23T13:34:35.971Z,4.30
2022-10-23T13:37:27.493Z,4.00
2022-10-23T13:40:28.082Z,4.57
2022-10-23T13:42:59.064Z,4.45
2022-10-23T13:45:27.540Z,4.13
2022-10-23T13:48:01.549Z,4.60
2022-10-23T13:50:28.643Z,4.03
2022-10-23T13:52:56.120Z,4.10
2022-10-23T13:55:26.786Z,4.00
2022-10-23T13:57:54.141Z,3.40
2022-10-23T14:00:22.959Z,3.83
2022-10-23T14:05:23.011Z,3.95
2022-10-23T14:07:52.687Z,4.30
2022-10-23T14:10:27.033Z,4.13
2022-10-23T14:12:55.480Z,4.43
2022-10-23T14:15:23.048Z,3.85
2022-10-23T14:17:50.185Z,3.95
2022-10-23T14:20:27.886Z,3.85
2022-10-23T14:22:55.180Z,4.03
2022-10-23T14:25:27.921Z,4.45
2022-10-23T14:28:00.965Z,4.20
2022-10-23T14:33:00.801Z,4.22
2022-10-23T14:35:27.887Z,3.72
2022-10-23T14:38:02.256Z,4.15
2022-10-23T14:40:29.305Z,4.22
2022-10-23T14:42:59.281Z,4.68
2022-10-23T14:45:29.905Z,4.47
2022-10-23T14:47:57.506Z,4.65
2022-10-23T14:50:24.670Z,4.85
2022-10-23T14:52:51.862Z,4.53
2022-10-23T14:55:19.626Z,4.65
2022-10-23T14:57:47.753Z,4.97
2022-10-23T15:00:16.099Z,3.67
2022-10-23T15:02:43.611Z,4.57
2022-10-23T15:05:11.933Z,4.70
2022-10-23T15:07:41.684Z,4.63
2022-10-23T15:10:09.944Z,3.85
2022-10-23T15:12:39.305Z,4.28
2022-10-23T15:15:08.748Z,4.32
2022-10-23T15:17:45.166Z,4.73
2022-10-23T15:20:12.580Z,4.28
2022-10-23T15:22:39.759Z,4.50
2022-10-23T15:25:17.653Z,5.05
2022-10-23T15:27:45.605Z,4.85
2022-10-23T15:30:14.579Z,4.45
2022-10-23T15:32:47.516Z,4.60
2022-10-23T15:35:14.877Z,5.07
2022-10-23T15:37:42.169Z,5.30
2022-10-23T15:40:13.233Z,5.07
2022-10-23T15:42:40.516Z,5.18
2022-10-23T15:45:08.509Z,5.93
2022-10-23T15:47:35.642Z,5.22
2022-10-23T15:50:02.730Z,5.03
2022-10-23T15:52:32.356Z,5.70
2022-10-23T15:55:00.007Z,5.05
2022-10-23T15:57:28.186Z,5.43
2022-10-23T15:59:56.281Z,5.70
2022-10-23T16:02:23.851Z,5.23
2022-10-23T16:04:51.049Z,6.18
2022-10-23T16:07:19.573Z,5.63
2022-10-23T16:09:46.705Z,5.68
2022-10-23T16:12:16.104Z,6.28
2022-10-23T16:14:45.983Z,6.03
2022-10-23T16:19:46.759Z,6.20
2022-10-23T16:22:17.670Z,6.00
2022-10-23T16:24:49.442Z,6.68
2022-10-23T16:27:17.353Z,5.57
2022-10-23T16:29:44.584Z,6.15
2022-10-23T16:32:12.125Z,5.95
2022-10-23T16:34:41.180Z,6.57
2022-10-23T16:37:08.530Z,5.28
2022-10-23T16:39:36.316Z,7.07
2022-10-23T16:42:06.359Z,7.60
2022-10-23T16:44:38.838Z,6.97
2022-10-23T16:47:09.370Z,6.70
2022-10-23T16:49:37.614Z,6.25
2022-10-23T16:52:09.568Z,7.30
2022-10-23T16:54:38.301Z,6.85
2022-10-23T16:57:10.574Z,7.03
2022-10-23T16:59:43.172Z,7.35
2022-10-23T17:02:14.225Z,6.68
2022-10-23T17:04:41.627Z,7.20
2022-10-23T17:07:13.229Z,7.07
2022-10-23T17:09:47.748Z,7.63
2022-10-23T17:12:16.956Z,6.70
2022-10-23T17:14:44.347Z,7.63
2022-10-23T17:17:12.499Z,6.70
2022-10-23T17:19:46.754Z,7.60
2022-10-23T17:22:15.491Z,7.80
2022-10-23T17:24:51.616Z,7.03
2022-10-23T17:27:23.260Z,7.50
2022-10-23T17:29:51.105Z,6.63
2022-10-23T17:34:53.858Z,8.02
2022-10-23T17:37:26.193Z,7.65
2022-10-23T17:40:00.900Z,6.28
2022-10-23T17:42:29.683Z,5.82
2022-10-23T17:44:58.529Z,6.70
2022-10-23T17:47:27.069Z,6.22
2022-10-23T17:49:54.348Z,8.45
2022-10-23T17:52:21.620Z,8.10
2022-10-23T17:54:59.542Z,8.48
2022-10-23T17:57:26.741Z,8.07
2022-10-23T17:59:56.928Z,6.82
2022-10-23T18:02:24.593Z,7.93
2022-10-23T18:04:54.074Z,7.75
2022-10-23T18:07:26.994Z,8.07
2022-10-23T18:09:56.673Z,6.82
2022-10-23T18:15:19.340Z,7.13
2022-10-23T18:18:05.267Z,7.95
2022-10-23T18:20:41.069Z,10.45
2022-10-23T18:23:09.994Z,9.02
2022-10-23T18:25:50.930Z,8.25
2022-10-23T18:28:18.566Z,9.75
2022-10-23T18:30:52.243Z,7.15
2022-10-23T18:33:24.473Z,7.95
2022-10-23T18:35:53.151Z,7.45
2022-10-23T18:38:30.018Z,12.50
2022-10-23T18:41:08.851Z,8.20
2022-10-23T18:43:43.856Z,7.93
2022-10-23T18:46:15.184Z,9.27
2022-10-23T18:48:50.448Z,7.72
2022-10-23T18:51:33.294Z,8.52
2022-10-23T18:54:06.089Z,7.40
2022-10-23T18:56:36.384Z,7.40
2022-10-23T18:59:12.234Z,7.40
2022-10-23T19:01:41.985Z,9.10
2022-10-23T19:04:16.017Z,7.28
2022-10-23T19:06:47.403Z,8.13
2022-10-23T19:09:16.362Z,7.68
2022-10-23T19:11:47.860Z,8.15
2022-10-23T19:14:21.307Z,7.53
2022-10-23T19:19:59.773Z,7.53
2022-10-23T19:22:34.727Z,7.28
2022-10-23T19:25:17.569Z,6.80
2022-10-23T19:27:48.059Z,7.50
2022-10-23T19:30:21.902Z,7.20
2022-10-23T19:32:57.455Z,7.00
2022-10-23T19:35:25.086Z,8.23
2022-10-23T19:37:56.434Z,8.05
2022-10-23T19:43:10.151Z,7.32
2022-10-23T19:45:40.911Z,7.05
2022-10-23T19:48:11.812Z,8.65
2022-10-23T19:50:48.284Z,7.68
2022-10-23T19:53:22.149Z,8.93
2022-10-23T19:58:25.666Z,10.63
2022-10-23T20:00:53.415Z,9.40
2022-10-23T20:03:28.090Z,10.00
2022-10-23T20:05:57.148Z,11.60
2022-10-23T20:08:32.606Z,11.40
2022-10-23T20:11:03.739Z,10.88
2022-10-23T20:13:32.725Z,11.55
2022-10-23T20:18:52.469Z,11.18
2022-10-23T20:21:21.929Z,9.73
2022-10-23T20:23:50.977Z,10.52
2022-10-23T20:26:22.092Z,10.82
2022-10-23T20:28:55.630Z,10.75
2022-10-23T20:31:30.096Z,11.25
2022-10-23T20:34:01.023Z,10.32
2022-10-23T20:36:46.765Z,13.75
2022-10-23T20:39:21.937Z,11.27
2022-10-23T20:41:56.033Z,11.13
2022-10-23T20:44:30.582Z,12.68
2022-10-23T20:47:00.545Z,13.02
2022-10-23T20:49:34.089Z,12.93
2022-10-23T20:52:01.469Z,11.93
2022-10-23T20:54:29.580Z,11.38
2022-10-23T20:57:00.758Z,11.05
2022-10-23T20:59:28.644Z,11.70
2022-10-23T21:02:06.517Z,11.57
2022-10-23T21:04:41.780Z,11.40
2022-10-23T21:07:11.885Z,11.82
2022-10-23T21:09:40.412Z,11.25
2022-10-23T21:12:08.991Z,10.75
2022-10-23T21:14:38.791Z,9.75
2022-10-23T21:17:06.805Z,9.52
2022-10-23T21:19:37.365Z,9.73
2022-10-23T21:22:04.841Z,10.50
2022-10-23T21:24:36.050Z,9.77
2022-10-23T21:27:07.282Z,9.55
2022-10-23T21:29:35.315Z,9.82
2022-10-23T21:32:02.804Z,10.02
2022-10-23T21:34:31.121Z,10.10
2022-10-23T21:37:14.620Z,9.27
2022-10-23T21:39:47.090Z,10.15
2022-10-23T21:42:35.991Z,9.43
2022-10-23T21:45:04.206Z,9.80
2022-10-23T21:47:33.631Z,9.85
2022-10-23T21:50:06.058Z,9.57
2022-10-23T21:52:38.494Z,9.55
2022-10-23T21:55:06.469Z,10.75
2022-10-23T21:57:39.039Z,10.18
2022-10-23T22:00:10.294Z,8.73
2022-10-23T22:02:44.313Z,9.65
2022-10-23T22:05:14.759Z,10.60
2022-10-23T22:07:49.419Z,10.70
2022-10-23T22:10:17.050Z,10.80
2022-10-23T22:12:44.728Z,8.82
2022-10-23T22:17:44.719Z,9.77
2022-10-23T22:20:13.599Z,10.20
2022-10-23T22:22:45.431Z,10.10
2022-10-23T22:25:12.592Z,9.82
2022-10-23T22:27:44.145Z,10.38
2022-10-23T22:30:12.397Z,10.45
2022-10-23T22:32:39.484Z,10.23
2022-10-23T22:37:34.413Z,10.07
2022-10-23T22:40:03.427Z,9.98
2022-10-23T22:42:38.931Z,10.55
2022-10-23T22:45:07.971Z,11.10
2022-10-23T22:47:39.461Z,10.27
2022-10-23T22:50:10.219Z,10.45
2022-10-23T22:52:41.795Z,10.10
2022-10-23T22:55:12.910Z,10.93
2022-10-23T22:57:41.753Z,10.85
2022-10-23T23:00:13.020Z,10.40
2022-10-23T23:02:46.970Z,11.13
2022-10-23T23:05:15.450Z,10.93
2022-10-23T23:07:45.852Z,9.98
2022-10-23T23:10:14.485Z,10.73
2022-10-23T23:12:42.553Z,12.00
2022-10-23T23:15:12.352Z,10.50
2022-10-23T23:17:42.833Z,12.32
2022-10-23T23:20:16.547Z,11.57
2022-10-23T23:22:47.539Z,12.35
2022-10-23T23:25:16.005Z,11.57
2022-10-23T23:27:45.178Z,11.30
2022-10-23T23:30:12.643Z,11.10
2022-10-23T23:35:11.504Z,11.73
2022-10-23T23:37:39.959Z,11.25
2022-10-23T23:40:12.259Z,12.35
2022-10-23T23:42:39.495Z,11.98
2022-10-23T23:47:44.946Z,11.80
2022-10-23T23:50:17.217Z,11.95
2022-10-23T23:52:45.375Z,13.00
2022-10-23T23:55:13.814Z,12.98
2022-10-23T23:57:43.559Z,13.85
